sensor_id;sensor_type;location;lat;lon;timestamp;P1;durP1;ratioP1;P2;durP2;ratioP2
4011;SDS011;2020;48.682;9.024;2022-07-03T00:01:55;2.87;;;2.10;;
4011;SDS011;2020;48.682;9.024;2022-07-03T00:04:20;1.73;;;1.70;;
4011;SDS011;2020;48.682;9.024;2022-07-03T00:06:46;2.00;;;1.93;;
4011;SDS011;2020;48.682;9.024;2022-07-03T00:09:12;2.00;;;1.90;;
4011;SDS011;2020;48.682;9.024;2022-07-03T00:11:37;1.87;;;1.80;;
4011;SDS011;2020;48.682;9.024;2022-07-03T00:14:03;1.40;;;1.40;;
4011;SDS011;2020;48.682;9.024;2022-07-03T00:16:29;1.80;;;1.70;;
4011;SDS011;2020;48.682;9.024;2022-07-03T00:18:55;2.03;;;2.03;;
4011;SDS011;2020;48.682;9.024;2022-07-03T00:21:22;1.87;;;1.77;;
4011;SDS011;2020;48.682;9.024;2022-07-03T00:23:58;1.53;;;1.53;;
4011;SDS011;2020;48.682;9.024;2022-07-03T00:26:28;2.00;;;1.90;;
4011;SDS011;2020;48.682;9.024;2022-07-03T00:28:56;2.90;;;1.63;;
4011;SDS011;2020;48.682;9.024;2022-07-03T00:31:26;1.97;;;1.87;;
4011;SDS011;2020;48.682;9.024;2022-07-03T00:33:54;1.77;;;1.77;;
4011;SDS011;2020;48.682;9.024;2022-07-03T00:36:22;2.03;;;1.93;;
4011;SDS011;2020;48.682;9.024;2022-07-03T00:38:49;2.23;;;2.13;;
4011;SDS011;2020;48.682;9.024;2022-07-03T00:41:28;2.10;;;2.00;;
4011;SDS011;2020;48.682;9.024;2022-07-03T00:43:55;1.87;;;1.87;;
4011;SDS011;2020;48.682;9.024;2022-07-03T00:46:21;1.60;;;1.60;;
4011;SDS011;2020;48.682;9.024;2022-07-03T00:48:49;1.97;;;1.97;;
4011;SDS011;2020;48.682;9.024;2022-07-03T00:51:16;2.40;;;2.10;;
4011;SDS011;2020;48.682;9.024;2022-07-03T00:53:45;9.10;;;2.23;;
4011;SDS011;2020;48.682;9.024;2022-07-03T00:56:11;2.33;;;2.23;;
4011;SDS011;2020;48.682;9.024;2022-07-03T00:58:40;1.93;;;1.90;;
4011;SDS011;2020;48.682;9.024;2022-07-03T01:01:06;1.90;;;1.90;;
4011;SDS011;2020;48.682;9.024;2022-07-03T01:03:34;1.80;;;1.80;;
4011;SDS011;2020;48.682;9.024;2022-07-03T01:06:10;1.70;;;1.70;;
4011;SDS011;2020;48.682;9.024;2022-07-03T01:08:42;1.90;;;1.90;;
4011;SDS011;2020;48.682;9.024;2022-07-03T01:17:02;3.23;;;1.77;;
4011;SDS011;2020;48.682;9.024;2022-07-03T01:27:25;2.30;;;2.10;;
4011;SDS011;2020;48.682;9.024;2022-07-03T01:30:04;1.77;;;1.77;;
4011;SDS011;2020;48.682;9.024;2022-07-03T01:32:39;2.40;;;2.33;;
4011;SDS011;2020;48.682;9.024;2022-07-03T01:38:29;2.40;;;1.67;;
4011;SDS011;2020;48.682;9.024;2022-07-03T01:40:56;1.93;;;1.83;;
4011;SDS011;2020;48.682;9.024;2022-07-03T01:43:30;1.97;;;1.87;;
4011;SDS011;2020;48.682;9.024;2022-07-03T01:45:57;2.27;;;2.27;;
4011;SDS011;2020;48.682;9.024;2022-07-03T01:48:24;2.10;;;2.10;;
4011;SDS011;2020;48.682;9.024;2022-07-03T01:50:50;1.80;;;1.80;;
4011;SDS011;2020;48.682;9.024;2022-07-03T01:53:16;1.60;;;1.50;;
4011;SDS011;2020;48.682;9.024;2022-07-03T01:55:42;2.27;;;2.17;;
4011;SDS011;2020;48.682;9.024;2022-07-03T01:58:08;1.80;;;1.80;;
4011;SDS011;2020;48.682;9.024;2022-07-03T02:00:40;2.10;;;2.00;;
4011;SDS011;2020;48.682;9.024;2022-07-03T02:03:11;2.73;;;2.37;;
4011;SDS011;2020;48.682;9.024;2022-07-03T02:13:37;2.30;;;2.10;;
4011;SDS011;2020;48.682;9.024;2022-07-03T02:16:04;1.83;;;1.83;;
4011;SDS011;2020;48.682;9.024;2022-07-03T02:18:35;3.63;;;1.77;;
4011;SDS011;2020;48.682;9.024;2022-07-03T02:21:18;1.60;;;1.60;;
4011;SDS011;2020;48.682;9.024;2022-07-03T02:26:39;2.00;;;2.00;;
4011;SDS011;2020;48.682;9.024;2022-07-03T02:29:07;2.20;;;2.10;;
4011;SDS011;2020;48.682;9.024;2022-07-03T02:31:38;2.10;;;2.00;;
4011;SDS011;2020;48.682;9.024;2022-07-03T02:34:07;2.53;;;2.20;;
4011;SDS011;2020;48.682;9.024;2022-07-03T02:36:38;2.40;;;2.30;;
4011;SDS011;2020;48.682;9.024;2022-07-03T02:39:08;2.20;;;2.10;;
4011;SDS011;2020;48.682;9.024;2022-07-03T02:41:46;2.50;;;2.40;;
4011;SDS011;2020;48.682;9.024;2022-07-03T02:47:06;1.80;;;1.80;;
4011;SDS011;2020;48.682;9.024;2022-07-03T02:49:39;3.63;;;2.37;;
4011;SDS011;2020;48.682;9.024;2022-07-03T02:52:13;1.90;;;1.90;;
4011;SDS011;2020;48.682;9.024;2022-07-03T02:54:45;2.23;;;2.10;;
4011;SDS011;2020;48.682;9.024;2022-07-03T02:57:12;1.73;;;1.73;;
4011;SDS011;2020;48.682;9.024;2022-07-03T02:59:53;2.37;;;2.37;;
4011;SDS011;2020;48.682;9.024;2022-07-03T03:02:25;3.33;;;2.10;;
4011;SDS011;2020;48.682;9.024;2022-07-03T03:05:21;2.40;;;2.40;;
4011;SDS011;2020;48.682;9.024;2022-07-03T03:08:12;2.47;;;2.37;;
4011;SDS011;2020;48.682;9.024;2022-07-03T03:10:41;2.03;;;2.03;;
4011;SDS011;2020;48.682;9.024;2022-07-03T03:13:11;2.03;;;2.03;;
4011;SDS011;2020;48.682;9.024;2022-07-03T03:15:38;2.40;;;2.30;;
4011;SDS011;2020;48.682;9.024;2022-07-03T03:18:10;2.87;;;2.60;;
4011;SDS011;2020;48.682;9.024;2022-07-03T03:20:37;2.93;;;2.50;;
4011;SDS011;2020;48.682;9.024;2022-07-03T03:26:07;2.40;;;2.40;;
4011;SDS011;2020;48.682;9.024;2022-07-03T03:28:33;1.47;;;1.47;;
4011;SDS011;2020;48.682;9.024;2022-07-03T03:30:58;2.03;;;2.03;;
4011;SDS011;2020;48.682;9.024;2022-07-03T03:33:24;2.07;;;1.97;;
4011;SDS011;2020;48.682;9.024;2022-07-03T03:35:50;1.83;;;1.83;;
4011;SDS011;2020;48.682;9.024;2022-07-03T03:38:15;2.20;;;2.00;;
4011;SDS011;2020;48.682;9.024;2022-07-03T03:40:41;2.27;;;2.17;;
4011;SDS011;2020;48.682;9.024;2022-07-03T03:43:09;2.57;;;2.50;;
4011;SDS011;2020;48.682;9.024;2022-07-03T03:45:34;2.13;;;2.13;;
4011;SDS011;2020;48.682;9.024;2022-07-03T03:47:59;2.43;;;2.23;;
4011;SDS011;2020;48.682;9.024;2022-07-03T03:50:25;2.00;;;2.00;;
4011;SDS011;2020;48.682;9.024;2022-07-03T03:52:51;1.60;;;1.60;;
4011;SDS011;2020;48.682;9.024;2022-07-03T03:55:16;2.60;;;2.53;;
4011;SDS011;2020;48.682;9.024;2022-07-03T03:57:41;2.50;;;2.40;;
4011;SDS011;2020;48.682;9.024;2022-07-03T04:00:07;2.23;;;2.23;;
4011;SDS011;2020;48.682;9.024;2022-07-03T04:02:33;2.27;;;2.27;;
4011;SDS011;2020;48.682;9.024;2022-07-03T04:04:58;2.37;;;2.37;;
4011;SDS011;2020;48.682;9.024;2022-07-03T04:07:23;2.50;;;2.30;;
4011;SDS011;2020;48.682;9.024;2022-07-03T04:09:49;2.40;;;2.30;;
4011;SDS011;2020;48.682;9.024;2022-07-03T04:12:14;2.57;;;2.50;;
4011;SDS011;2020;48.682;9.024;2022-07-03T04:14:39;3.17;;;2.40;;
4011;SDS011;2020;48.682;9.024;2022-07-03T04:17:05;3.00;;;2.47;;
4011;SDS011;2020;48.682;9.024;2022-07-03T04:19:30;1.90;;;1.90;;
4011;SDS011;2020;48.682;9.024;2022-07-03T04:21:56;3.23;;;2.57;;
4011;SDS011;2020;48.682;9.024;2022-07-03T04:24:21;2.80;;;2.70;;
4011;SDS011;2020;48.682;9.024;2022-07-03T04:26:46;2.10;;;2.10;;
4011;SDS011;2020;48.682;9.024;2022-07-03T04:29:12;2.63;;;2.63;;
4011;SDS011;2020;48.682;9.024;2022-07-03T04:31:37;2.50;;;2.50;;
4011;SDS011;2020;48.682;9.024;2022-07-03T04:34:02;2.07;;;2.07;;
4011;SDS011;2020;48.682;9.024;2022-07-03T04:36:27;2.50;;;2.43;;
4011;SDS011;2020;48.682;9.024;2022-07-03T04:38:53;2.53;;;2.40;;
4011;SDS011;2020;48.682;9.024;2022-07-03T04:41:19;2.80;;;2.60;;
4011;SDS011;2020;48.682;9.024;2022-07-03T04:43:44;3.07;;;2.87;;
4011;SDS011;2020;48.682;9.024;2022-07-03T04:46:09;3.67;;;3.10;;
4011;SDS011;2020;48.682;9.024;2022-07-03T04:48:35;2.77;;;2.67;;
4011;SDS011;2020;48.682;9.024;2022-07-03T04:51:00;2.10;;;2.10;;
4011;SDS011;2020;48.682;9.024;2022-07-03T04:53:25;2.90;;;2.80;;
4011;SDS011;2020;48.682;9.024;2022-07-03T04:55:51;2.63;;;2.53;;
4011;SDS011;2020;48.682;9.024;2022-07-03T04:58:19;2.67;;;2.57;;
4011;SDS011;2020;48.682;9.024;2022-07-03T05:00:44;2.20;;;2.10;;
4011;SDS011;2020;48.682;9.024;2022-07-03T05:03:10;5.23;;;2.47;;
4011;SDS011;2020;48.682;9.024;2022-07-03T05:05:37;2.57;;;2.57;;
4011;SDS011;2020;48.682;9.024;2022-07-03T05:08:02;2.57;;;2.47;;
4011;SDS011;2020;48.682;9.024;2022-07-03T05:10:28;2.20;;;2.20;;
4011;SDS011;2020;48.682;9.024;2022-07-03T05:12:53;3.17;;;3.07;;
4011;SDS011;2020;48.682;9.024;2022-07-03T05:15:18;2.40;;;2.30;;
4011;SDS011;2020;48.682;9.024;2022-07-03T05:17:44;2.40;;;2.40;;
4011;SDS011;2020;48.682;9.024;2022-07-03T05:20:09;2.87;;;2.77;;
4011;SDS011;2020;48.682;9.024;2022-07-03T05:22:54;3.17;;;2.97;;
4011;SDS011;2020;48.682;9.024;2022-07-03T05:25:20;3.93;;;2.90;;
4011;SDS011;2020;48.682;9.024;2022-07-03T05:27:45;3.40;;;3.20;;
4011;SDS011;2020;48.682;9.024;2022-07-03T05:30:11;3.60;;;2.70;;
4011;SDS011;2020;48.682;9.024;2022-07-03T05:32:37;2.50;;;2.40;;
4011;SDS011;2020;48.682;9.024;2022-07-03T05:35:03;2.43;;;2.33;;
4011;SDS011;2020;48.682;9.024;2022-07-03T05:37:29;2.30;;;2.10;;
4011;SDS011;2020;48.682;9.024;2022-07-03T05:39:54;2.10;;;2.00;;
4011;SDS011;2020;48.682;9.024;2022-07-03T05:42:20;2.10;;;2.00;;
4011;SDS011;2020;48.682;9.024;2022-07-03T05:44:45;1.93;;;1.93;;
4011;SDS011;2020;48.682;9.024;2022-07-03T05:47:10;2.17;;;2.17;;
4011;SDS011;2020;48.682;9.024;2022-07-03T05:49:36;2.23;;;2.23;;
4011;SDS011;2020;48.682;9.024;2022-07-03T05:52:01;2.10;;;2.10;;
4011;SDS011;2020;48.682;9.024;2022-07-03T05:54:26;2.10;;;2.00;;
4011;SDS011;2020;48.682;9.024;2022-07-03T05:56:51;1.93;;;1.83;;
4011;SDS011;2020;48.682;9.024;2022-07-03T05:59:17;2.20;;;2.10;;
4011;SDS011;2020;48.682;9.024;2022-07-03T06:01:42;1.80;;;1.70;;
4011;SDS011;2020;48.682;9.024;2022-07-03T06:04:07;2.00;;;2.00;;
4011;SDS011;2020;48.682;9.024;2022-07-03T06:06:33;2.33;;;2.23;;
4011;SDS011;2020;48.682;9.024;2022-07-03T06:08:58;2.23;;;2.13;;
4011;SDS011;2020;48.682;9.024;2022-07-03T06:11:23;2.10;;;2.00;;
4011;SDS011;2020;48.682;9.024;2022-07-03T06:13:48;1.70;;;1.60;;
4011;SDS011;2020;48.682;9.024;2022-07-03T06:16:14;1.87;;;1.80;;
4011;SDS011;2020;48.682;9.024;2022-07-03T06:18:39;1.53;;;1.53;;
4011;SDS011;2020;48.682;9.024;2022-07-03T06:21:04;1.70;;;1.70;;
4011;SDS011;2020;48.682;9.024;2022-07-03T06:23:30;2.03;;;2.03;;
4011;SDS011;2020;48.682;9.024;2022-07-03T06:25:55;1.70;;;1.70;;
4011;SDS011;2020;48.682;9.024;2022-07-03T06:28:20;1.67;;;1.67;;
4011;SDS011;2020;48.682;9.024;2022-07-03T06:30:46;1.73;;;1.73;;
4011;SDS011;2020;48.682;9.024;2022-07-03T06:33:11;2.10;;;1.73;;
4011;SDS011;2020;48.682;9.024;2022-07-03T06:35:36;1.50;;;1.40;;
4011;SDS011;2020;48.682;9.024;2022-07-03T06:38:02;1.80;;;1.70;;
4011;SDS011;2020;48.682;9.024;2022-07-03T06:40:27;1.70;;;1.60;;
4011;SDS011;2020;48.682;9.024;2022-07-03T06:42:53;1.40;;;1.40;;
4011;SDS011;2020;48.682;9.024;2022-07-03T06:45:18;1.70;;;1.70;;
4011;SDS011;2020;48.682;9.024;2022-07-03T06:47:43;1.73;;;1.73;;
4011;SDS011;2020;48.682;9.024;2022-07-03T06:50:09;1.47;;;1.40;;
4011;SDS011;2020;48.682;9.024;2022-07-03T06:52:34;1.10;;;1.10;;
4011;SDS011;2020;48.682;9.024;2022-07-03T06:54:59;1.70;;;1.60;;
4011;SDS011;2020;48.682;9.024;2022-07-03T06:57:25;1.30;;;1.20;;
4011;SDS011;2020;48.682;9.024;2022-07-03T06:59:50;1.47;;;1.37;;
4011;SDS011;2020;48.682;9.024;2022-07-03T07:02:15;1.37;;;1.37;;
4011;SDS011;2020;48.682;9.024;2022-07-03T07:04:40;2.40;;;1.23;;
4011;SDS011;2020;48.682;9.024;2022-07-03T07:07:06;1.20;;;1.10;;
4011;SDS011;2020;48.682;9.024;2022-07-03T07:09:31;1.33;;;1.33;;
4011;SDS011;2020;48.682;9.024;2022-07-03T07:11:56;2.80;;;1.30;;
4011;SDS011;2020;48.682;9.024;2022-07-03T07:14:22;1.33;;;1.33;;
4011;SDS011;2020;48.682;9.024;2022-07-03T07:16:47;1.20;;;1.20;;
4011;SDS011;2020;48.682;9.024;2022-07-03T07:19:12;1.23;;;1.20;;
4011;SDS011;2020;48.682;9.024;2022-07-03T07:21:38;1.00;;;1.00;;
4011;SDS011;2020;48.682;9.024;2022-07-03T07:24:03;1.07;;;1.07;;
4011;SDS011;2020;48.682;9.024;2022-07-03T07:26:29;1.13;;;1.13;;
4011;SDS011;2020;48.682;9.024;2022-07-03T07:28:54;1.30;;;1.30;;
4011;SDS011;2020;48.682;9.024;2022-07-03T07:31:19;1.30;;;1.20;;
4011;SDS011;2020;48.682;9.024;2022-07-03T07:33:44;4.97;;;1.43;;
4011;SDS011;2020;48.682;9.024;2022-07-03T07:36:10;1.83;;;1.37;;
4011;SDS011;2020;48.682;9.024;2022-07-03T07:38:35;1.50;;;1.43;;
4011;SDS011;2020;48.682;9.024;2022-07-03T07:41:00;1.43;;;1.43;;
4011;SDS011;2020;48.682;9.024;2022-07-03T07:43:25;1.20;;;1.20;;
4011;SDS011;2020;48.682;9.024;2022-07-03T07:45:51;1.40;;;1.40;;
4011;SDS011;2020;48.682;9.024;2022-07-03T07:48:17;1.10;;;0.90;;
4011;SDS011;2020;48.682;9.024;2022-07-03T07:50:43;1.30;;;1.20;;
4011;SDS011;2020;48.682;9.024;2022-07-03T07:53:08;1.10;;;1.00;;
4011;SDS011;2020;48.682;9.024;2022-07-03T07:57:59;1.10;;;1.10;;
4011;SDS011;2020;48.682;9.024;2022-07-03T08:27:35;0.90;;;0.90;;
4011;SDS011;2020;48.682;9.024;2022-07-03T08:30:01;1.03;;;1.03;;
4011;SDS011;2020;48.682;9.024;2022-07-03T08:32:27;1.30;;;1.20;;
4011;SDS011;2020;48.682;9.024;2022-07-03T08:34:52;1.20;;;1.10;;
4011;SDS011;2020;48.682;9.024;2022-07-03T08:37:17;1.57;;;0.93;;
4011;SDS011;2020;48.682;9.024;2022-07-03T08:39:42;1.27;;;1.03;;
4011;SDS011;2020;48.682;9.024;2022-07-03T08:42:08;1.27;;;0.90;;
4011;SDS011;2020;48.682;9.024;2022-07-03T08:44:36;1.00;;;1.00;;
4011;SDS011;2020;48.682;9.024;2022-07-03T08:47:02;1.17;;;1.17;;
4011;SDS011;2020;48.682;9.024;2022-07-03T08:49:31;1.20;;;1.20;;
4011;SDS011;2020;48.682;9.024;2022-07-03T08:51:57;4.90;;;1.30;;
4011;SDS011;2020;48.682;9.024;2022-07-03T08:54:25;1.00;;;1.00;;
4011;SDS011;2020;48.682;9.024;2022-07-03T08:56:50;1.53;;;1.43;;
4011;SDS011;2020;48.682;9.024;2022-07-03T08:59:15;1.20;;;1.20;;
4011;SDS011;2020;48.682;9.024;2022-07-03T09:01:42;1.20;;;1.20;;
4011;SDS011;2020;48.682;9.024;2022-07-03T09:04:11;1.10;;;1.10;;
4011;SDS011;2020;48.682;9.024;2022-07-03T09:06:40;0.90;;;0.90;;
4011;SDS011;2020;48.682;9.024;2022-07-03T09:09:07;1.13;;;1.13;;
4011;SDS011;2020;48.682;9.024;2022-07-03T09:11:36;2.13;;;1.00;;
4011;SDS011;2020;48.682;9.024;2022-07-03T09:14:03;1.47;;;0.90;;
4011;SDS011;2020;48.682;9.024;2022-07-03T09:16:31;0.80;;;0.80;;
4011;SDS011;2020;48.682;9.024;2022-07-03T09:18:59;0.70;;;0.70;;
4011;SDS011;2020;48.682;9.024;2022-07-03T09:21:24;1.30;;;1.20;;
4011;SDS011;2020;48.682;9.024;2022-07-03T09:23:49;1.23;;;0.83;;
4011;SDS011;2020;48.682;9.024;2022-07-03T09:26:16;1.00;;;1.00;;
4011;SDS011;2020;48.682;9.024;2022-07-03T09:28:51;1.10;;;1.10;;
4011;SDS011;2020;48.682;9.024;2022-07-03T09:31:21;0.87;;;0.87;;
4011;SDS011;2020;48.682;9.024;2022-07-03T09:34:02;0.97;;;0.97;;
4011;SDS011;2020;48.682;9.024;2022-07-03T09:36:47;1.00;;;1.00;;
4011;SDS011;2020;48.682;9.024;2022-07-03T09:41:58;1.07;;;1.00;;
4011;SDS011;2020;48.682;9.024;2022-07-03T09:44:38;4.60;;;0.90;;
4011;SDS011;2020;48.682;9.024;2022-07-03T09:54:57;1.77;;;1.67;;
4011;SDS011;2020;48.682;9.024;2022-07-03T09:57:23;1.03;;;0.90;;
4011;SDS011;2020;48.682;9.024;2022-07-03T10:05:20;0.83;;;0.83;;
4011;SDS011;2020;48.682;9.024;2022-07-03T10:07:54;0.87;;;0.87;;
4011;SDS011;2020;48.682;9.024;2022-07-03T10:10:30;1.03;;;0.93;;
4011;SDS011;2020;48.682;9.024;2022-07-03T10:12:57;0.80;;;0.80;;
4011;SDS011;2020;48.682;9.024;2022-07-03T10:15:23;0.80;;;0.80;;
4011;SDS011;2020;48.682;9.024;2022-07-03T10:17:55;0.70;;;0.70;;
4011;SDS011;2020;48.682;9.024;2022-07-03T10:22:52;1.00;;;1.00;;
4011;SDS011;2020;48.682;9.024;2022-07-03T10:25:18;1.60;;;0.80;;
4011;SDS011;2020;48.682;9.024;2022-07-03T10:27:44;0.90;;;0.90;;
4011;SDS011;2020;48.682;9.024;2022-07-03T10:30:11;1.13;;;1.13;;
4011;SDS011;2020;48.682;9.024;2022-07-03T10:32:39;1.03;;;1.03;;
4011;SDS011;2020;48.682;9.024;2022-07-03T10:35:06;0.80;;;0.80;;
4011;SDS011;2020;48.682;9.024;2022-07-03T10:37:38;0.80;;;0.80;;
4011;SDS011;2020;48.682;9.024;2022-07-03T10:40:14;0.80;;;0.80;;
4011;SDS011;2020;48.682;9.024;2022-07-03T10:43:09;0.90;;;0.90;;
4011;SDS011;2020;48.682;9.024;2022-07-03T10:46:11;0.80;;;0.80;;
4011;SDS011;2020;48.682;9.024;2022-07-03T10:48:52;1.47;;;0.87;;
4011;SDS011;2020;48.682;9.024;2022-07-03T10:51:17;1.10;;;1.00;;
4011;SDS011;2020;48.682;9.024;2022-07-03T10:53:42;1.53;;;1.10;;
4011;SDS011;2020;48.682;9.024;2022-07-03T10:56:08;0.97;;;0.97;;
4011;SDS011;2020;48.682;9.024;2022-07-03T10:58:53;0.80;;;0.80;;
4011;SDS011;2020;48.682;9.024;2022-07-03T11:01:25;0.90;;;0.90;;
4011;SDS011;2020;48.682;9.024;2022-07-03T11:04:02;2.60;;;0.97;;
4011;SDS011;2020;48.682;9.024;2022-07-03T11:07:07;2.10;;;0.80;;
4011;SDS011;2020;48.682;9.024;2022-07-03T11:09:32;0.70;;;0.70;;
4011;SDS011;2020;48.682;9.024;2022-07-03T11:11:58;1.70;;;0.80;;
4011;SDS011;2020;48.682;9.024;2022-07-03T11:14:24;0.70;;;0.70;;
4011;SDS011;2020;48.682;9.024;2022-07-03T11:19:51;0.90;;;0.90;;
4011;SDS011;2020;48.682;9.024;2022-07-03T11:22:48;0.93;;;0.90;;
4011;SDS011;2020;48.682;9.024;2022-07-03T11:25:18;0.90;;;0.90;;
4011;SDS011;2020;48.682;9.024;2022-07-03T11:27:43;0.90;;;0.90;;
4011;SDS011;2020;48.682;9.024;2022-07-03T11:30:09;0.80;;;0.80;;
4011;SDS011;2020;48.682;9.024;2022-07-03T11:32:47;0.80;;;0.80;;
4011;SDS011;2020;48.682;9.024;2022-07-03T11:38:12;1.00;;;1.00;;
4011;SDS011;2020;48.682;9.024;2022-07-03T11:40:40;1.00;;;1.00;;
4011;SDS011;2020;48.682;9.024;2022-07-03T11:43:08;0.70;;;0.70;;
4011;SDS011;2020;48.682;9.024;2022-07-03T11:45:34;0.80;;;0.80;;
4011;SDS011;2020;48.682;9.024;2022-07-03T11:48:05;1.07;;;0.97;;
4011;SDS011;2020;48.682;9.024;2022-07-03T11:50:38;1.30;;;0.80;;
4011;SDS011;2020;48.682;9.024;2022-07-03T11:53:15;0.90;;;0.90;;
4011;SDS011;2020;48.682;9.024;2022-07-03T11:55:49;0.70;;;0.70;;
4011;SDS011;2020;48.682;9.024;2022-07-03T11:58:19;0.70;;;0.70;;
4011;SDS011;2020;48.682;9.024;2022-07-03T12:00:45;1.13;;;1.13;;
4011;SDS011;2020;48.682;9.024;2022-07-03T12:03:14;1.13;;;0.80;;
4011;SDS011;2020;48.682;9.024;2022-07-03T12:05:49;0.60;;;0.60;;
4011;SDS011;2020;48.682;9.024;2022-07-03T12:08:26;1.13;;;0.90;;
4011;SDS011;2020;48.682;9.024;2022-07-03T12:11:02;0.87;;;0.87;;
4011;SDS011;2020;48.682;9.024;2022-07-03T12:13:30;1.00;;;1.00;;
4011;SDS011;2020;48.682;9.024;2022-07-03T12:18:40;0.90;;;0.90;;
4011;SDS011;2020;48.682;9.024;2022-07-03T12:21:06;1.00;;;0.73;;
4011;SDS011;2020;48.682;9.024;2022-07-03T12:23:39;0.80;;;0.80;;
4011;SDS011;2020;48.682;9.024;2022-07-03T12:26:12;1.50;;;0.70;;
4011;SDS011;2020;48.682;9.024;2022-07-03T12:28:38;0.80;;;0.80;;
4011;SDS011;2020;48.682;9.024;2022-07-03T12:31:05;1.43;;;1.00;;
4011;SDS011;2020;48.682;9.024;2022-07-03T12:33:30;1.03;;;1.03;;
4011;SDS011;2020;48.682;9.024;2022-07-03T12:36:06;2.00;;;0.80;;
4011;SDS011;2020;48.682;9.024;2022-07-03T12:38:35;0.80;;;0.80;;
4011;SDS011;2020;48.682;9.024;2022-07-03T12:41:05;1.23;;;0.80;;
4011;SDS011;2020;48.682;9.024;2022-07-03T12:43:41;0.80;;;0.80;;
4011;SDS011;2020;48.682;9.024;2022-07-03T12:46:19;0.83;;;0.83;;
4011;SDS011;2020;48.682;9.024;2022-07-03T12:48:47;1.23;;;0.70;;
4011;SDS011;2020;48.682;9.024;2022-07-03T12:51:13;0.70;;;0.70;;
4011;SDS011;2020;48.682;9.024;2022-07-03T12:53:39;0.70;;;0.70;;
4011;SDS011;2020;48.682;9.024;2022-07-03T12:56:05;0.80;;;0.80;;
4011;SDS011;2020;48.682;9.024;2022-07-03T12:58:35;3.57;;;1.10;;
4011;SDS011;2020;48.682;9.024;2022-07-03T13:01:25;1.17;;;0.60;;
4011;SDS011;2020;48.682;9.024;2022-07-03T13:04:03;0.93;;;0.80;;
4011;SDS011;2020;48.682;9.024;2022-07-03T13:06:29;0.90;;;0.90;;
4011;SDS011;2020;48.682;9.024;2022-07-03T13:08:56;0.80;;;0.80;;
4011;SDS011;2020;48.682;9.024;2022-07-03T13:11:33;0.70;;;0.70;;
4011;SDS011;2020;48.682;9.024;2022-07-03T13:14:09;0.87;;;0.87;;
4011;SDS011;2020;48.682;9.024;2022-07-03T13:16:39;0.70;;;0.70;;
4011;SDS011;2020;48.682;9.024;2022-07-03T13:19:08;0.93;;;0.70;;
4011;SDS011;2020;48.682;9.024;2022-07-03T13:21:35;0.70;;;0.70;;
4011;SDS011;2020;48.682;9.024;2022-07-03T13:24:00;0.80;;;0.80;;
4011;SDS011;2020;48.682;9.024;2022-07-03T13:26:26;3.43;;;0.90;;
4011;SDS011;2020;48.682;9.024;2022-07-03T13:28:51;2.63;;;0.60;;
4011;SDS011;2020;48.682;9.024;2022-07-03T13:31:17;0.80;;;0.80;;
4011;SDS011;2020;48.682;9.024;2022-07-03T13:33:42;0.73;;;0.73;;
4011;SDS011;2020;48.682;9.024;2022-07-03T13:36:08;0.77;;;0.77;;
4011;SDS011;2020;48.682;9.024;2022-07-03T13:38:33;0.90;;;0.80;;
4011;SDS011;2020;48.682;9.024;2022-07-03T13:40:58;0.70;;;0.70;;
4011;SDS011;2020;48.682;9.024;2022-07-03T13:43:23;1.27;;;0.90;;
4011;SDS011;2020;48.682;9.024;2022-07-03T13:45:49;0.57;;;0.57;;
4011;SDS011;2020;48.682;9.024;2022-07-03T13:48:14;1.23;;;0.80;;
4011;SDS011;2020;48.682;9.024;2022-07-03T13:50:41;0.80;;;0.80;;
4011;SDS011;2020;48.682;9.024;2022-07-03T13:53:07;1.03;;;1.03;;
4011;SDS011;2020;48.682;9.024;2022-07-03T13:55:32;1.10;;;1.10;;
4011;SDS011;2020;48.682;9.024;2022-07-03T13:57:58;1.53;;;1.07;;
4011;SDS011;2020;48.682;9.024;2022-07-03T14:00:23;0.90;;;0.90;;
4011;SDS011;2020;48.682;9.024;2022-07-03T14:02:48;0.93;;;0.93;;
4011;SDS011;2020;48.682;9.024;2022-07-03T14:05:13;1.13;;;1.03;;
4011;SDS011;2020;48.682;9.024;2022-07-03T14:07:39;0.83;;;0.83;;
4011;SDS011;2020;48.682;9.024;2022-07-03T14:10:04;1.33;;;1.00;;
4011;SDS011;2020;48.682;9.024;2022-07-03T14:12:30;1.13;;;0.90;;
4011;SDS011;2020;48.682;9.024;2022-07-03T14:14:55;0.80;;;0.80;;
4011;SDS011;2020;48.682;9.024;2022-07-03T14:17:21;1.10;;;1.10;;
4011;SDS011;2020;48.682;9.024;2022-07-03T14:19:46;1.20;;;1.20;;
4011;SDS011;2020;48.682;9.024;2022-07-03T14:22:12;1.00;;;1.00;;
4011;SDS011;2020;48.682;9.024;2022-07-03T14:24:37;0.90;;;0.90;;
4011;SDS011;2020;48.682;9.024;2022-07-03T14:27:02;1.20;;;1.20;;
4011;SDS011;2020;48.682;9.024;2022-07-03T14:29:46;0.90;;;0.90;;
4011;SDS011;2020;48.682;9.024;2022-07-03T14:32:30;1.13;;;0.90;;
4011;SDS011;2020;48.682;9.024;2022-07-03T14:34:59;1.30;;;1.13;;
4011;SDS011;2020;48.682;9.024;2022-07-03T14:37:26;0.90;;;0.90;;
4011;SDS011;2020;48.682;9.024;2022-07-03T14:39:52;0.90;;;0.90;;
4011;SDS011;2020;48.682;9.024;2022-07-03T14:42:18;1.10;;;1.00;;
4011;SDS011;2020;48.682;9.024;2022-07-03T14:44:43;6.20;;;1.40;;
4011;SDS011;2020;48.682;9.024;2022-07-03T14:47:09;0.87;;;0.87;;
4011;SDS011;2020;48.682;9.024;2022-07-03T14:49:34;1.07;;;1.00;;
4011;SDS011;2020;48.682;9.024;2022-07-03T14:52:00;0.80;;;0.80;;
4011;SDS011;2020;48.682;9.024;2022-07-03T14:54:27;0.87;;;0.87;;
4011;SDS011;2020;48.682;9.024;2022-07-03T14:56:55;1.07;;;1.07;;
4011;SDS011;2020;48.682;9.024;2022-07-03T15:02:03;0.97;;;0.97;;
4011;SDS011;2020;48.682;9.024;2022-07-03T15:04:40;1.60;;;0.80;;
4011;SDS011;2020;48.682;9.024;2022-07-03T15:07:16;1.17;;;1.07;;
4011;SDS011;2020;48.682;9.024;2022-07-03T15:09:45;1.27;;;0.90;;
4011;SDS011;2020;48.682;9.024;2022-07-03T15:12:23;1.33;;;1.33;;
4011;SDS011;2020;48.682;9.024;2022-07-03T15:14:53;1.20;;;1.00;;
4011;SDS011;2020;48.682;9.024;2022-07-03T15:17:21;1.20;;;1.20;;
4011;SDS011;2020;48.682;9.024;2022-07-03T15:19:48;1.27;;;0.97;;
4011;SDS011;2020;48.682;9.024;2022-07-03T15:22:16;0.97;;;0.97;;
4011;SDS011;2020;48.682;9.024;2022-07-03T15:24:42;1.10;;;1.10;;
4011;SDS011;2020;48.682;9.024;2022-07-03T15:27:09;1.10;;;1.10;;
4011;SDS011;2020;48.682;9.024;2022-07-03T15:29:35;1.30;;;1.30;;
4011;SDS011;2020;48.682;9.024;2022-07-03T15:32:01;0.80;;;0.80;;
4011;SDS011;2020;48.682;9.024;2022-07-03T15:34:28;1.63;;;1.50;;
4011;SDS011;2020;48.682;9.024;2022-07-03T15:45:03;0.90;;;0.90;;
4011;SDS011;2020;48.682;9.024;2022-07-03T15:53:08;1.47;;;1.30;;
4011;SDS011;2020;48.682;9.024;2022-07-03T15:55:39;1.00;;;1.00;;
4011;SDS011;2020;48.682;9.024;2022-07-03T15:58:06;0.83;;;0.83;;
4011;SDS011;2020;48.682;9.024;2022-07-03T16:00:37;1.10;;;1.10;;
4011;SDS011;2020;48.682;9.024;2022-07-03T16:03:16;1.00;;;1.00;;
4011;SDS011;2020;48.682;9.024;2022-07-03T16:05:57;0.93;;;0.93;;
4011;SDS011;2020;48.682;9.024;2022-07-03T16:08:28;1.63;;;0.90;;
4011;SDS011;2020;48.682;9.024;2022-07-03T16:10:54;1.27;;;1.27;;
4011;SDS011;2020;48.682;9.024;2022-07-03T16:13:21;1.30;;;1.30;;
4011;SDS011;2020;48.682;9.024;2022-07-03T16:15:50;1.27;;;1.17;;
4011;SDS011;2020;48.682;9.024;2022-07-03T16:18:16;1.27;;;1.27;;
4011;SDS011;2020;48.682;9.024;2022-07-03T16:20:42;3.43;;;1.40;;
4011;SDS011;2020;48.682;9.024;2022-07-03T16:23:08;1.43;;;1.33;;
4011;SDS011;2020;48.682;9.024;2022-07-03T16:25:38;3.10;;;1.30;;
4011;SDS011;2020;48.682;9.024;2022-07-03T16:28:05;1.53;;;1.53;;
4011;SDS011;2020;48.682;9.024;2022-07-03T16:30:34;1.20;;;1.10;;
4011;SDS011;2020;48.682;9.024;2022-07-03T16:33:02;1.03;;;1.03;;
4011;SDS011;2020;48.682;9.024;2022-07-03T16:35:30;1.40;;;1.30;;
4011;SDS011;2020;48.682;9.024;2022-07-03T16:38:01;1.80;;;1.23;;
4011;SDS011;2020;48.682;9.024;2022-07-03T16:40:28;1.07;;;1.00;;
4011;SDS011;2020;48.682;9.024;2022-07-03T16:42:56;2.60;;;1.27;;
4011;SDS011;2020;48.682;9.024;2022-07-03T16:45:23;1.00;;;1.00;;
4011;SDS011;2020;48.682;9.024;2022-07-03T16:47:52;1.13;;;1.13;;
4011;SDS011;2020;48.682;9.024;2022-07-03T16:50:21;1.33;;;1.20;;
4011;SDS011;2020;48.682;9.024;2022-07-03T16:52:49;1.00;;;0.90;;
4011;SDS011;2020;48.682;9.024;2022-07-03T16:55:16;1.43;;;1.43;;
4011;SDS011;2020;48.682;9.024;2022-07-03T16:57:51;1.60;;;1.40;;
4011;SDS011;2020;48.682;9.024;2022-07-03T17:00:21;1.00;;;1.00;;
4011;SDS011;2020;48.682;9.024;2022-07-03T17:02:49;1.30;;;1.30;;
4011;SDS011;2020;48.682;9.024;2022-07-03T17:05:16;1.80;;;1.10;;
4011;SDS011;2020;48.682;9.024;2022-07-03T17:07:46;2.10;;;1.20;;
4011;SDS011;2020;48.682;9.024;2022-07-03T17:10:13;1.10;;;1.10;;